This is the latest recevied weather packets stored in our database for station/object DO6MJ-1. If no packets are shown the sender has not sent any weather packets the latest 10 day(s).
| Time | Temp. | Humidity | Pressure | Rain* | Wind** | Luminosity | Snow |
|---|---|---|---|---|---|---|---|
| 1787645054 | 17.78° C | 73% | 1010.8 hPa | 0 mm | - | - | - |
| 1787643854 | 17.22° C | 75% | 1010.8 hPa | 0 mm | - | - | - |
| 1787642653 | 16.11° C | 77% | 1010.9 hPa | 0 mm | - | - | - |
| 1787641453 | 16.11° C | 77% | 1010.6 hPa | 0 mm | - | - | - |
| 1787640253 | 16.67° C | 73% | 1010.7 hPa | 0 mm | - | - | - |
| 1787639053 | 17.22° C | 76% | 1010.4 hPa | 0 mm | - | - | - |
| 1787637852 | 16.11° C | 82% | 1010.5 hPa | 0 mm | - | - | - |
| 1787636652 | 13.33° C | 93% | 1010.6 hPa | 0 mm | - | - | - |
| 1787635452 | 10.56° C | 91% | 1010.6 hPa | 0 mm | - | - | - |
| 1787634251 | 10° C | 90% | 1010.5 hPa | 0 mm | - | - | - |
| 1787633052 | 10° C | 90% | 1010.5 hPa | 0 mm | - | - | - |
| 1787631851 | 10° C | 89% | 1010.5 hPa | 0 mm | - | - | - |
| 1787630651 | 10° C | 89% | 1010.5 hPa | 0 mm | - | - | - |
| 1787629450 | 10° C | 89% | 1010.6 hPa | 0 mm | - | - | - |
| 1787628250 | 10° C | 88% | 1010.6 hPa | 0 mm | - | - | - |
| 1787627050 | 10.56° C | 87% | 1010.7 hPa | 0 mm | - | - | - |
| 1787625850 | 10.56° C | 87% | 1010.9 hPa | 0 mm | - | - | - |
| 1787624649 | 10.56° C | 87% | 1011 hPa | 0 mm | - | - | - |
| 1787623449 | 11.11° C | 86% | 1011 hPa | 0 mm | - | - | - |
| 1787622249 | 11.11° C | 86% | 1011.1 hPa | 0 mm | - | - | - |
| 1787621048 | 11.11° C | 85% | 1011.1 hPa | 0 mm | - | - | - |
| 1787619848 | 11.11° C | 85% | 1011 hPa | 0 mm | - | - | - |
| 1787618648 | 11.67° C | 84% | 1011.3 hPa | 0 mm | - | - | - |
| 1787617447 | 11.67° C | 83% | 1011.4 hPa | 0 mm | - | - | - |
| 1787616247 | 11.67° C | 84% | 1011.5 hPa | 0 mm | - | - | - |
* Rain latest hour (hover to see other rain measurements)
** Current wind speed in m/s (hover to see current wind gust speed)